sensor_id;sensor_type;location;lat;lon;timestamp;P1;durP1;ratioP1;P2;durP2;ratioP2
51602;SDS011;37954;51.980;5.850;2023-02-08T00:01:26;11.63;;;7.47;;
51602;SDS011;37954;51.980;5.850;2023-02-08T00:05:38;10.30;;;6.50;;
51602;SDS011;37954;51.980;5.850;2023-02-08T00:09:50;12.80;;;6.87;;
51602;SDS011;37954;51.980;5.850;2023-02-08T00:14:01;10.03;;;6.40;;
51602;SDS011;37954;51.980;5.850;2023-02-08T00:18:13;9.57;;;6.57;;
51602;SDS011;37954;51.980;5.850;2023-02-08T00:22:25;12.53;;;6.50;;
51602;SDS011;37954;51.980;5.850;2023-02-08T00:26:36;12.97;;;7.03;;
51602;SDS011;37954;51.980;5.850;2023-02-08T00:30:48;9.50;;;6.47;;
51602;SDS011;37954;51.980;5.850;2023-02-08T00:34:59;10.30;;;6.87;;
51602;SDS011;37954;51.980;5.850;2023-02-08T00:39:11;14.10;;;6.93;;
51602;SDS011;37954;51.980;5.850;2023-02-08T00:43:24;10.47;;;6.17;;
51602;SDS011;37954;51.980;5.850;2023-02-08T00:47:36;10.13;;;6.80;;
51602;SDS011;37954;51.980;5.850;2023-02-08T00:51:47;10.60;;;6.80;;
51602;SDS011;37954;51.980;5.850;2023-02-08T00:55:59;11.10;;;6.87;;
51602;SDS011;37954;51.980;5.850;2023-02-08T01:00:11;11.43;;;6.30;;
51602;SDS011;37954;51.980;5.850;2023-02-08T01:04:23;11.33;;;6.77;;
51602;SDS011;37954;51.980;5.850;2023-02-08T01:08:34;9.90;;;7.27;;
51602;SDS011;37954;51.980;5.850;2023-02-08T01:12:46;10.77;;;7.20;;
51602;SDS011;37954;51.980;5.850;2023-02-08T01:16:58;10.87;;;6.73;;
51602;SDS011;37954;51.980;5.850;2023-02-08T01:21:11;9.83;;;6.87;;
51602;SDS011;37954;51.980;5.850;2023-02-08T01:25:24;10.97;;;7.17;;
51602;SDS011;37954;51.980;5.850;2023-02-08T01:29:38;11.30;;;6.93;;
51602;SDS011;37954;51.980;5.850;2023-02-08T01:33:50;10.43;;;7.00;;
51602;SDS011;37954;51.980;5.850;2023-02-08T01:38:02;12.47;;;7.50;;
51602;SDS011;37954;51.980;5.850;2023-02-08T01:42:15;10.57;;;7.43;;
51602;SDS011;37954;51.980;5.850;2023-02-08T01:46:29;14.70;;;7.47;;
51602;SDS011;37954;51.980;5.850;2023-02-08T01:50:44;11.97;;;7.00;;
51602;SDS011;37954;51.980;5.850;2023-02-08T01:55:07;12.40;;;7.03;;
51602;SDS011;37954;51.980;5.850;2023-02-08T01:59:24;13.90;;;7.40;;
51602;SDS011;37954;51.980;5.850;2023-02-08T02:03:42;13.03;;;7.47;;
51602;SDS011;37954;51.980;5.850;2023-02-08T02:07:54;11.53;;;7.27;;
51602;SDS011;37954;51.980;5.850;2023-02-08T02:12:10;11.83;;;7.30;;
51602;SDS011;37954;51.980;5.850;2023-02-08T02:16:23;12.90;;;7.40;;
51602;SDS011;37954;51.980;5.850;2023-02-08T02:20:48;12.30;;;7.47;;
51602;SDS011;37954;51.980;5.850;2023-02-08T02:29:57;12.00;;;7.40;;
51602;SDS011;37954;51.980;5.850;2023-02-08T02:56:32;12.13;;;7.80;;
51602;SDS011;37954;51.980;5.850;2023-02-08T03:00:51;12.17;;;8.03;;
51602;SDS011;37954;51.980;5.850;2023-02-08T03:05:05;12.07;;;7.80;;
51602;SDS011;37954;51.980;5.850;2023-02-08T03:09:42;9.53;;;7.00;;
51602;SDS011;37954;51.980;5.850;2023-02-08T03:14:03;12.80;;;7.60;;
51602;SDS011;37954;51.980;5.850;2023-02-08T03:27:35;13.00;;;7.50;;
51602;SDS011;37954;51.980;5.850;2023-02-08T03:36:51;13.17;;;7.27;;
51602;SDS011;37954;51.980;5.850;2023-02-08T03:41:06;11.57;;;7.57;;
51602;SDS011;37954;51.980;5.850;2023-02-08T03:45:23;11.40;;;7.40;;
51602;SDS011;37954;51.980;5.850;2023-02-08T03:49:39;12.33;;;7.03;;
51602;SDS011;37954;51.980;5.850;2023-02-08T03:53:53;13.70;;;7.47;;
51602;SDS011;37954;51.980;5.850;2023-02-08T03:58:10;15.10;;;7.10;;
51602;SDS011;37954;51.980;5.850;2023-02-08T04:02:28;11.43;;;6.57;;
51602;SDS011;37954;51.980;5.850;2023-02-08T04:06:43;13.60;;;7.27;;
51602;SDS011;37954;51.980;5.850;2023-02-08T04:10:55;11.80;;;6.67;;
51602;SDS011;37954;51.980;5.850;2023-02-08T04:15:07;10.53;;;6.33;;
51602;SDS011;37954;51.980;5.850;2023-02-08T04:19:19;14.13;;;7.43;;
51602;SDS011;37954;51.980;5.850;2023-02-08T04:23:31;10.97;;;7.13;;
51602;SDS011;37954;51.980;5.850;2023-02-08T04:27:42;12.70;;;7.20;;
51602;SDS011;37954;51.980;5.850;2023-02-08T04:31:54;10.27;;;6.50;;
51602;SDS011;37954;51.980;5.850;2023-02-08T04:36:06;10.13;;;6.23;;
51602;SDS011;37954;51.980;5.850;2023-02-08T04:40:18;10.93;;;6.73;;
51602;SDS011;37954;51.980;5.850;2023-02-08T04:44:30;12.37;;;7.40;;
51602;SDS011;37954;51.980;5.850;2023-02-08T04:48:43;11.27;;;6.97;;
51602;SDS011;37954;51.980;5.850;2023-02-08T04:52:54;10.87;;;6.73;;
51602;SDS011;37954;51.980;5.850;2023-02-08T04:57:06;10.10;;;6.73;;
51602;SDS011;37954;51.980;5.850;2023-02-08T05:01:19;11.57;;;7.10;;
51602;SDS011;37954;51.980;5.850;2023-02-08T05:05:30;16.43;;;7.70;;
51602;SDS011;37954;51.980;5.850;2023-02-08T05:09:42;10.53;;;7.13;;
51602;SDS011;37954;51.980;5.850;2023-02-08T05:13:54;11.47;;;6.57;;
51602;SDS011;37954;51.980;5.850;2023-02-08T05:18:05;10.83;;;6.83;;
51602;SDS011;37954;51.980;5.850;2023-02-08T05:22:17;11.83;;;6.67;;
51602;SDS011;37954;51.980;5.850;2023-02-08T05:26:28;12.20;;;6.93;;
51602;SDS011;37954;51.980;5.850;2023-02-08T05:30:40;12.13;;;7.23;;
51602;SDS011;37954;51.980;5.850;2023-02-08T05:34:52;11.70;;;7.03;;
51602;SDS011;37954;51.980;5.850;2023-02-08T05:39:04;12.00;;;7.33;;
51602;SDS011;37954;51.980;5.850;2023-02-08T05:43:16;13.23;;;7.27;;
51602;SDS011;37954;51.980;5.850;2023-02-08T05:47:27;11.33;;;7.20;;
51602;SDS011;37954;51.980;5.850;2023-02-08T05:51:39;12.93;;;7.97;;
51602;SDS011;37954;51.980;5.850;2023-02-08T05:55:50;12.10;;;7.20;;
51602;SDS011;37954;51.980;5.850;2023-02-08T06:00:05;15.33;;;8.27;;
51602;SDS011;37954;51.980;5.850;2023-02-08T06:04:26;13.37;;;7.70;;
51602;SDS011;37954;51.980;5.850;2023-02-08T06:08:37;16.53;;;8.37;;
51602;SDS011;37954;51.980;5.850;2023-02-08T06:12:49;15.57;;;8.70;;
51602;SDS011;37954;51.980;5.850;2023-02-08T06:17:01;16.47;;;8.97;;
51602;SDS011;37954;51.980;5.850;2023-02-08T06:21:12;14.87;;;8.57;;
51602;SDS011;37954;51.980;5.850;2023-02-08T06:25:24;15.47;;;8.43;;
51602;SDS011;37954;51.980;5.850;2023-02-08T06:29:35;15.43;;;8.60;;
51602;SDS011;37954;51.980;5.850;2023-02-08T06:33:47;17.73;;;9.90;;
51602;SDS011;37954;51.980;5.850;2023-02-08T06:37:58;14.27;;;8.87;;
51602;SDS011;37954;51.980;5.850;2023-02-08T06:42:10;14.70;;;8.87;;
51602;SDS011;37954;51.980;5.850;2023-02-08T06:46:22;17.80;;;8.97;;
51602;SDS011;37954;51.980;5.850;2023-02-08T06:50:33;18.17;;;9.90;;
51602;SDS011;37954;51.980;5.850;2023-02-08T06:54:45;16.63;;;10.10;;
51602;SDS011;37954;51.980;5.850;2023-02-08T06:58:57;16.47;;;9.50;;
51602;SDS011;37954;51.980;5.850;2023-02-08T07:03:08;21.03;;;9.63;;
51602;SDS011;37954;51.980;5.850;2023-02-08T07:07:20;17.07;;;9.63;;
51602;SDS011;37954;51.980;5.850;2023-02-08T07:11:32;16.20;;;9.43;;
51602;SDS011;37954;51.980;5.850;2023-02-08T07:15:44;20.33;;;9.80;;
51602;SDS011;37954;51.980;5.850;2023-02-08T07:19:55;14.97;;;9.10;;
51602;SDS011;37954;51.980;5.850;2023-02-08T07:24:07;16.40;;;8.97;;
51602;SDS011;37954;51.980;5.850;2023-02-08T07:28:19;17.13;;;9.27;;
51602;SDS011;37954;51.980;5.850;2023-02-08T07:32:31;17.20;;;9.80;;
51602;SDS011;37954;51.980;5.850;2023-02-08T07:36:45;14.70;;;9.00;;
51602;SDS011;37954;51.980;5.850;2023-02-08T07:41:04;14.27;;;9.07;;
51602;SDS011;37954;51.980;5.850;2023-02-08T07:45:20;15.53;;;8.20;;
51602;SDS011;37954;51.980;5.850;2023-02-08T07:49:32;17.17;;;9.07;;
51602;SDS011;37954;51.980;5.850;2023-02-08T07:53:44;16.10;;;9.30;;
51602;SDS011;37954;51.980;5.850;2023-02-08T07:57:56;14.23;;;8.53;;
51602;SDS011;37954;51.980;5.850;2023-02-08T08:02:08;15.40;;;9.47;;
51602;SDS011;37954;51.980;5.850;2023-02-08T08:06:21;14.33;;;9.00;;
51602;SDS011;37954;51.980;5.850;2023-02-08T08:10:33;14.93;;;8.87;;
51602;SDS011;37954;51.980;5.850;2023-02-08T08:14:45;16.20;;;9.03;;
51602;SDS011;37954;51.980;5.850;2023-02-08T08:18:57;16.87;;;10.00;;
51602;SDS011;37954;51.980;5.850;2023-02-08T08:23:08;17.63;;;10.93;;
51602;SDS011;37954;51.980;5.850;2023-02-08T08:27:20;16.30;;;9.50;;
51602;SDS011;37954;51.980;5.850;2023-02-08T08:31:31;16.40;;;8.30;;
51602;SDS011;37954;51.980;5.850;2023-02-08T08:35:43;18.90;;;9.10;;
51602;SDS011;37954;51.980;5.850;2023-02-08T08:39:57;15.30;;;7.93;;
51602;SDS011;37954;51.980;5.850;2023-02-08T08:44:09;10.80;;;6.90;;
51602;SDS011;37954;51.980;5.850;2023-02-08T08:48:21;23.57;;;11.00;;
51602;SDS011;37954;51.980;5.850;2023-02-08T08:52:32;12.33;;;8.13;;
51602;SDS011;37954;51.980;5.850;2023-02-08T08:56:44;14.30;;;7.03;;
51602;SDS011;37954;51.980;5.850;2023-02-08T09:00:56;9.80;;;7.47;;
51602;SDS011;37954;51.980;5.850;2023-02-08T09:05:09;10.27;;;6.90;;
51602;SDS011;37954;51.980;5.850;2023-02-08T09:09:21;10.83;;;6.47;;
51602;SDS011;37954;51.980;5.850;2023-02-08T09:13:33;12.30;;;7.07;;
51602;SDS011;37954;51.980;5.850;2023-02-08T09:17:45;9.57;;;6.13;;
51602;SDS011;37954;51.980;5.850;2023-02-08T09:21:56;8.68;;;6.65;;
51602;SDS011;37954;51.980;5.850;2023-02-08T09:26:11;9.45;;;6.20;;
51602;SDS011;37954;51.980;5.850;2023-02-08T09:30:24;7.90;;;6.03;;
51602;SDS011;37954;51.980;5.850;2023-02-08T09:34:36;9.52;;;6.07;;
51602;SDS011;37954;51.980;5.850;2023-02-08T09:38:48;7.85;;;5.93;;
51602;SDS011;37954;51.980;5.850;2023-02-08T09:47:37;10.02;;;6.57;;
51602;SDS011;37954;51.980;5.850;2023-02-08T09:51:58;6.55;;;5.57;;
51602;SDS011;37954;51.980;5.850;2023-02-08T09:56:14;10.77;;;6.15;;
51602;SDS011;37954;51.980;5.850;2023-02-08T10:00:30;9.25;;;6.18;;
51602;SDS011;37954;51.980;5.850;2023-02-08T10:09:24;6.47;;;5.03;;
51602;SDS011;37954;51.980;5.850;2023-02-08T10:27:16;12.90;;;6.45;;
51602;SDS011;37954;51.980;5.850;2023-02-08T10:36:11;10.48;;;6.57;;
51602;SDS011;37954;51.980;5.850;2023-02-08T10:40:34;8.05;;;5.93;;
51602;SDS011;37954;51.980;5.850;2023-02-08T10:45:10;6.70;;;5.85;;
51602;SDS011;37954;51.980;5.850;2023-02-08T10:49:49;9.35;;;5.72;;
51602;SDS011;37954;51.980;5.850;2023-02-08T10:54:10;6.95;;;5.10;;
51602;SDS011;37954;51.980;5.850;2023-02-08T10:58:23;7.57;;;4.90;;
51602;SDS011;37954;51.980;5.850;2023-02-08T11:02:40;6.55;;;5.32;;
51602;SDS011;37954;51.980;5.850;2023-02-08T11:06:52;10.57;;;5.57;;
51602;SDS011;37954;51.980;5.850;2023-02-08T11:11:08;6.97;;;5.18;;
51602;SDS011;37954;51.980;5.850;2023-02-08T11:15:33;8.07;;;5.40;;
51602;SDS011;37954;51.980;5.850;2023-02-08T11:19:54;9.90;;;4.55;;
51602;SDS011;37954;51.980;5.850;2023-02-08T11:29:02;7.75;;;5.40;;
51602;SDS011;37954;51.980;5.850;2023-02-08T11:33:27;10.65;;;5.68;;
51602;SDS011;37954;51.980;5.850;2023-02-08T11:37:40;10.82;;;5.20;;
51602;SDS011;37954;51.980;5.850;2023-02-08T11:41:59;6.13;;;4.22;;
51602;SDS011;37954;51.980;5.850;2023-02-08T11:46:12;7.00;;;5.45;;
51602;SDS011;37954;51.980;5.850;2023-02-08T11:50:25;7.25;;;5.30;;
51602;SDS011;37954;51.980;5.850;2023-02-08T11:54:41;6.85;;;4.75;;
51602;SDS011;37954;51.980;5.850;2023-02-08T11:58:57;5.25;;;4.07;;
51602;SDS011;37954;51.980;5.850;2023-02-08T12:03:36;4.22;;;3.83;;
51602;SDS011;37954;51.980;5.850;2023-02-08T12:12:43;4.40;;;3.50;;
51602;SDS011;37954;51.980;5.850;2023-02-08T12:21:36;7.35;;;4.40;;
51602;SDS011;37954;51.980;5.850;2023-02-08T12:26:00;4.43;;;3.30;;
51602;SDS011;37954;51.980;5.850;2023-02-08T12:52:47;3.53;;;2.75;;
51602;SDS011;37954;51.980;5.850;2023-02-08T12:57:02;4.03;;;3.10;;
51602;SDS011;37954;51.980;5.850;2023-02-08T13:01:17;6.97;;;3.10;;
51602;SDS011;37954;51.980;5.850;2023-02-08T13:05:38;6.43;;;3.90;;
51602;SDS011;37954;51.980;5.850;2023-02-08T13:14:54;9.40;;;5.38;;
51602;SDS011;37954;51.980;5.850;2023-02-08T13:24:45;4.15;;;3.10;;
51602;SDS011;37954;51.980;5.850;2023-02-08T13:28:51;4.75;;;3.08;;
51602;SDS011;37954;51.980;5.850;2023-02-08T13:33:06;3.28;;;2.97;;
51602;SDS011;37954;51.980;5.850;2023-02-08T13:37:28;5.47;;;3.30;;
51602;SDS011;37954;51.980;5.850;2023-02-08T13:41:47;3.22;;;2.47;;
51602;SDS011;37954;51.980;5.850;2023-02-08T13:46:02;5.80;;;3.00;;
51602;SDS011;37954;51.980;5.850;2023-02-08T13:50:37;3.80;;;2.58;;
51602;SDS011;37954;51.980;5.850;2023-02-08T13:59:44;3.67;;;2.72;;
51602;SDS011;37954;51.980;5.850;2023-02-08T14:04:32;3.55;;;2.40;;
51602;SDS011;37954;51.980;5.850;2023-02-08T14:13:39;3.57;;;2.70;;
51602;SDS011;37954;51.980;5.850;2023-02-08T14:18:02;3.93;;;2.43;;
51602;SDS011;37954;51.980;5.850;2023-02-08T14:22:16;3.67;;;2.90;;
51602;SDS011;37954;51.980;5.850;2023-02-08T14:26:29;4.53;;;2.47;;
51602;SDS011;37954;51.980;5.850;2023-02-08T14:30:41;4.60;;;2.77;;
51602;SDS011;37954;51.980;5.850;2023-02-08T14:35:21;8.30;;;3.20;;
51602;SDS011;37954;51.980;5.850;2023-02-08T14:39:37;5.37;;;3.00;;
51602;SDS011;37954;51.980;5.850;2023-02-08T14:43:49;4.17;;;2.83;;
51602;SDS011;37954;51.980;5.850;2023-02-08T14:52:35;4.83;;;2.83;;
51602;SDS011;37954;51.980;5.850;2023-02-08T14:56:56;6.00;;;3.50;;
51602;SDS011;37954;51.980;5.850;2023-02-08T15:01:21;4.83;;;2.97;;
51602;SDS011;37954;51.980;5.850;2023-02-08T15:05:40;9.83;;;4.00;;
51602;SDS011;37954;51.980;5.850;2023-02-08T15:10:03;4.93;;;3.30;;
51602;SDS011;37954;51.980;5.850;2023-02-08T15:14:17;5.60;;;3.30;;
51602;SDS011;37954;51.980;5.850;2023-02-08T15:18:31;5.00;;;3.57;;
51602;SDS011;37954;51.980;5.850;2023-02-08T15:22:43;5.97;;;2.70;;
51602;SDS011;37954;51.980;5.850;2023-02-08T15:26:56;3.90;;;2.87;;
51602;SDS011;37954;51.980;5.850;2023-02-08T15:31:08;8.77;;;4.80;;
51602;SDS011;37954;51.980;5.850;2023-02-08T15:35:26;6.13;;;3.10;;
51602;SDS011;37954;51.980;5.850;2023-02-08T15:39:40;2.80;;;2.33;;
51602;SDS011;37954;51.980;5.850;2023-02-08T15:43:59;3.90;;;2.90;;
51602;SDS011;37954;51.980;5.850;2023-02-08T15:48:13;8.47;;;4.70;;
51602;SDS011;37954;51.980;5.850;2023-02-08T15:52:27;4.10;;;2.80;;
51602;SDS011;37954;51.980;5.850;2023-02-08T15:56:44;4.93;;;3.17;;
51602;SDS011;37954;51.980;5.850;2023-02-08T16:01:00;6.57;;;3.50;;
51602;SDS011;37954;51.980;5.850;2023-02-08T16:05:25;5.63;;;3.30;;
51602;SDS011;37954;51.980;5.850;2023-02-08T16:09:41;4.53;;;3.50;;
51602;SDS011;37954;51.980;5.850;2023-02-08T16:13:58;3.90;;;3.07;;
51602;SDS011;37954;51.980;5.850;2023-02-08T16:22:42;4.83;;;3.87;;
51602;SDS011;37954;51.980;5.850;2023-02-08T16:27:18;6.63;;;4.20;;
51602;SDS011;37954;51.980;5.850;2023-02-08T16:31:35;7.97;;;4.97;;
51602;SDS011;37954;51.980;5.850;2023-02-08T16:35:48;6.63;;;4.20;;
51602;SDS011;37954;51.980;5.850;2023-02-08T16:44:17;6.73;;;4.70;;
51602;SDS011;37954;51.980;5.850;2023-02-08T16:48:35;5.60;;;3.80;;
51602;SDS011;37954;51.980;5.850;2023-02-08T16:52:51;7.77;;;3.60;;
51602;SDS011;37954;51.980;5.850;2023-02-08T16:57:05;5.50;;;4.43;;
51602;SDS011;37954;51.980;5.850;2023-02-08T17:01:19;6.47;;;3.87;;
51602;SDS011;37954;51.980;5.850;2023-02-08T17:05:37;8.97;;;4.90;;
51602;SDS011;37954;51.980;5.850;2023-02-08T17:09:50;11.53;;;5.67;;
51602;SDS011;37954;51.980;5.850;2023-02-08T17:14:02;14.00;;;6.47;;
51602;SDS011;37954;51.980;5.850;2023-02-08T17:18:15;5.50;;;4.07;;
51602;SDS011;37954;51.980;5.850;2023-02-08T17:22:27;5.60;;;3.67;;
51602;SDS011;37954;51.980;5.850;2023-02-08T17:26:39;5.57;;;3.53;;
51602;SDS011;37954;51.980;5.850;2023-02-08T17:30:53;7.30;;;5.00;;
51602;SDS011;37954;51.980;5.850;2023-02-08T17:35:05;6.60;;;4.53;;
51602;SDS011;37954;51.980;5.850;2023-02-08T17:39:16;6.03;;;4.43;;
51602;SDS011;37954;51.980;5.850;2023-02-08T17:43:28;7.60;;;4.87;;
51602;SDS011;37954;51.980;5.850;2023-02-08T17:47:39;11.50;;;6.10;;
51602;SDS011;37954;51.980;5.850;2023-02-08T17:51:52;12.57;;;7.90;;
51602;SDS011;37954;51.980;5.850;2023-02-08T17:56:04;19.07;;;10.67;;
51602;SDS011;37954;51.980;5.850;2023-02-08T18:00:19;25.73;;;12.20;;
51602;SDS011;37954;51.980;5.850;2023-02-08T18:04:32;39.97;;;14.70;;
51602;SDS011;37954;51.980;5.850;2023-02-08T18:08:44;11.03;;;6.20;;
51602;SDS011;37954;51.980;5.850;2023-02-08T18:12:56;12.27;;;7.47;;
51602;SDS011;37954;51.980;5.850;2023-02-08T18:17:07;6.27;;;4.50;;
51602;SDS011;37954;51.980;5.850;2023-02-08T18:21:20;8.67;;;4.80;;
51602;SDS011;37954;51.980;5.850;2023-02-08T18:25:32;5.60;;;3.70;;
51602;SDS011;37954;51.980;5.850;2023-02-08T18:29:44;5.10;;;3.40;;
51602;SDS011;37954;51.980;5.850;2023-02-08T18:33:56;5.33;;;3.50;;
51602;SDS011;37954;51.980;5.850;2023-02-08T18:38:07;3.93;;;3.20;;
51602;SDS011;37954;51.980;5.850;2023-02-08T18:42:20;7.27;;;4.37;;
51602;SDS011;37954;51.980;5.850;2023-02-08T18:46:32;8.37;;;5.60;;
51602;SDS011;37954;51.980;5.850;2023-02-08T18:50:43;22.97;;;9.03;;
51602;SDS011;37954;51.980;5.850;2023-02-08T18:54:55;23.23;;;8.40;;
51602;SDS011;37954;51.980;5.850;2023-02-08T18:59:07;19.93;;;8.43;;
51602;SDS011;37954;51.980;5.850;2023-02-08T19:07:57;14.77;;;7.60;;
51602;SDS011;37954;51.980;5.850;2023-02-08T19:12:08;13.53;;;6.03;;
51602;SDS011;37954;51.980;5.850;2023-02-08T19:16:20;16.83;;;7.57;;
51602;SDS011;37954;51.980;5.850;2023-02-08T19:20:34;5.77;;;4.00;;
51602;SDS011;37954;51.980;5.850;2023-02-08T19:24:47;5.23;;;3.60;;
51602;SDS011;37954;51.980;5.850;2023-02-08T19:28:59;8.03;;;4.90;;
51602;SDS011;37954;51.980;5.850;2023-02-08T19:33:13;11.40;;;6.13;;
51602;SDS011;37954;51.980;5.850;2023-02-08T19:37:25;11.10;;;5.33;;
51602;SDS011;37954;51.980;5.850;2023-02-08T19:41:38;19.53;;;9.23;;
51602;SDS011;37954;51.980;5.850;2023-02-08T19:45:50;11.57;;;6.60;;
51602;SDS011;37954;51.980;5.850;2023-02-08T19:50:02;8.10;;;3.97;;
51602;SDS011;37954;51.980;5.850;2023-02-08T19:54:15;10.07;;;4.77;;
51602;SDS011;37954;51.980;5.850;2023-02-08T19:58:28;11.87;;;4.43;;
51602;SDS011;37954;51.980;5.850;2023-02-08T20:02:41;9.20;;;4.73;;
51602;SDS011;37954;51.980;5.850;2023-02-08T20:06:53;10.83;;;5.67;;
51602;SDS011;37954;51.980;5.850;2023-02-08T20:11:04;13.03;;;5.93;;
51602;SDS011;37954;51.980;5.850;2023-02-08T20:15:16;9.83;;;5.30;;
51602;SDS011;37954;51.980;5.850;2023-02-08T20:19:28;10.90;;;6.83;;
51602;SDS011;37954;51.980;5.850;2023-02-08T20:23:39;24.87;;;10.53;;
51602;SDS011;37954;51.980;5.850;2023-02-08T20:27:51;15.07;;;7.23;;
51602;SDS011;37954;51.980;5.850;2023-02-08T20:32:03;12.80;;;6.80;;
51602;SDS011;37954;51.980;5.850;2023-02-08T20:36:16;7.70;;;4.73;;
51602;SDS011;37954;51.980;5.850;2023-02-08T20:40:29;7.63;;;5.27;;
51602;SDS011;37954;51.980;5.850;2023-02-08T20:44:41;8.33;;;5.37;;
51602;SDS011;37954;51.980;5.850;2023-02-08T20:48:54;11.57;;;5.60;;
51602;SDS011;37954;51.980;5.850;2023-02-08T20:53:07;6.93;;;4.97;;
51602;SDS011;37954;51.980;5.850;2023-02-08T20:57:18;6.50;;;4.40;;
51602;SDS011;37954;51.980;5.850;2023-02-08T21:01:30;9.77;;;5.90;;
51602;SDS011;37954;51.980;5.850;2023-02-08T21:05:44;12.57;;;7.30;;
51602;SDS011;37954;51.980;5.850;2023-02-08T21:09:55;10.80;;;6.37;;
51602;SDS011;37954;51.980;5.850;2023-02-08T21:14:07;8.93;;;5.43;;
51602;SDS011;37954;51.980;5.850;2023-02-08T21:18:23;13.20;;;7.10;;
51602;SDS011;37954;51.980;5.850;2023-02-08T21:22:35;17.10;;;8.50;;
51602;SDS011;37954;51.980;5.850;2023-02-08T21:26:47;9.90;;;6.23;;
51602;SDS011;37954;51.980;5.850;2023-02-08T21:30:59;7.53;;;5.43;;
51602;SDS011;37954;51.980;5.850;2023-02-08T21:35:13;10.60;;;6.70;;
51602;SDS011;37954;51.980;5.850;2023-02-08T21:39:25;18.03;;;7.63;;
51602;SDS011;37954;51.980;5.850;2023-02-08T21:43:37;13.57;;;5.80;;
51602;SDS011;37954;51.980;5.850;2023-02-08T21:47:48;10.47;;;6.13;;
51602;SDS011;37954;51.980;5.850;2023-02-08T21:52:00;10.10;;;6.17;;
51602;SDS011;37954;51.980;5.850;2023-02-08T21:56:30;12.63;;;6.10;;
51602;SDS011;37954;51.980;5.850;2023-02-08T22:00:41;7.13;;;4.23;;
51602;SDS011;37954;51.980;5.850;2023-02-08T22:04:54;7.93;;;4.93;;
51602;SDS011;37954;51.980;5.850;2023-02-08T22:09:26;7.43;;;4.30;;
51602;SDS011;37954;51.980;5.850;2023-02-08T22:13:41;11.97;;;6.30;;
51602;SDS011;37954;51.980;5.850;2023-02-08T22:17:54;17.27;;;7.90;;
51602;SDS011;37954;51.980;5.850;2023-02-08T22:22:07;17.63;;;7.20;;
51602;SDS011;37954;51.980;5.850;2023-02-08T22:26:21;17.87;;;7.13;;
51602;SDS011;37954;51.980;5.850;2023-02-08T22:30:32;9.80;;;5.13;;
51602;SDS011;37954;51.980;5.850;2023-02-08T22:34:45;14.60;;;6.87;;
51602;SDS011;37954;51.980;5.850;2023-02-08T22:38:57;11.87;;;5.33;;
51602;SDS011;37954;51.980;5.850;2023-02-08T22:43:09;6.53;;;4.33;;
51602;SDS011;37954;51.980;5.850;2023-02-08T22:47:21;9.77;;;5.50;;
51602;SDS011;37954;51.980;5.850;2023-02-08T22:51:33;7.97;;;4.63;;
51602;SDS011;37954;51.980;5.850;2023-02-08T22:55:51;12.10;;;5.60;;
51602;SDS011;37954;51.980;5.850;2023-02-08T23:00:05;13.53;;;5.27;;
51602;SDS011;37954;51.980;5.850;2023-02-08T23:04:18;14.77;;;6.80;;
51602;SDS011;37954;51.980;5.850;2023-02-08T23:08:29;14.53;;;6.13;;
51602;SDS011;37954;51.980;5.850;2023-02-08T23:12:41;14.90;;;6.17;;
51602;SDS011;37954;51.980;5.850;2023-02-08T23:16:53;14.50;;;5.57;;
51602;SDS011;37954;51.980;5.850;2023-02-08T23:21:05;13.23;;;5.43;;
51602;SDS011;37954;51.980;5.850;2023-02-08T23:25:18;7.73;;;4.53;;
51602;SDS011;37954;51.980;5.850;2023-02-08T23:29:30;9.30;;;4.60;;
51602;SDS011;37954;51.980;5.850;2023-02-08T23:33:41;10.27;;;4.57;;
51602;SDS011;37954;51.980;5.850;2023-02-08T23:37:53;7.03;;;4.00;;
51602;SDS011;37954;51.980;5.850;2023-02-08T23:42:05;7.57;;;4.00;;
51602;SDS011;37954;51.980;5.850;2023-02-08T23:46:18;7.37;;;4.37;;
51602;SDS011;37954;51.980;5.850;2023-02-08T23:50:32;6.77;;;4.23;;
51602;SDS011;37954;51.980;5.850;2023-02-08T23:54:43;8.10;;;4.10;;
51602;SDS011;37954;51.980;5.850;2023-02-08T23:58:56;6.47;;;4.03;;
